createdAt,value
2023-03-29T00:01:43.832Z,97662.47
2023-03-29T00:04:46.184Z,97662.91
2023-03-29T00:07:47.977Z,97664.56
2023-03-29T00:10:51.938Z,97672.09
2023-03-29T00:13:54.225Z,97683.34
2023-03-29T00:16:56.782Z,97688.84
2023-03-29T00:20:00.100Z,97691.03
2023-03-29T00:23:02.155Z,97692.94
2023-03-29T00:26:05.939Z,97686.34
2023-03-29T00:29:09.654Z,97692.00
2023-03-29T00:32:11.791Z,97692.00
2023-03-29T00:35:13.802Z,97691.38
2023-03-29T00:38:16.470Z,97696.41
2023-03-29T00:41:18.365Z,97695.41
2023-03-29T00:45:17.435Z,97706.19
2023-03-29T00:48:28.303Z,97706.03
2023-03-29T00:51:34.465Z,97702.28
2023-03-29T00:54:38.085Z,97707.72
2023-03-29T00:57:43.449Z,97702.56
2023-03-29T01:00:54.253Z,97699.09
2023-03-29T01:04:06.654Z,97694.59
2023-03-29T01:07:23.029Z,97700.97
2023-03-29T01:10:32.699Z,97708.19
2023-03-29T01:14:08.252Z,97711.09
2023-03-29T01:17:11.107Z,97724.91
2023-03-29T01:20:43.559Z,97730.06
2023-03-29T01:23:52.584Z,97733.19
2023-03-29T01:27:12.675Z,97722.41
2023-03-29T01:30:24.928Z,97723.03
2023-03-29T01:33:40.884Z,97732.66
2023-03-29T01:36:50.280Z,97725.47
2023-03-29T01:39:53.085Z,97726.66
2023-03-29T01:43:11.015Z,97723.53
2023-03-29T01:46:25.650Z,97726.88
2023-03-29T01:49:57.035Z,97730.91
2023-03-29T01:53:10.058Z,97731.44
2023-03-29T01:56:19.784Z,97728.81
2023-03-29T01:59:32.391Z,97731.19
2023-03-29T02:02:34.980Z,97734.19
2023-03-29T02:05:39.961Z,97732.88
2023-03-29T02:08:43.675Z,97740.81
2023-03-29T02:11:46.135Z,97746.28
2023-03-29T02:14:48.073Z,97747.00
2023-03-29T02:17:51.166Z,97741.50
2023-03-29T02:20:55.898Z,97747.97
2023-03-29T02:24:02.192Z,97756.94
2023-03-29T02:27:07.511Z,97760.59
2023-03-29T02:30:12.149Z,97772.38
2023-03-29T02:33:28.734Z,97790.44
2023-03-29T02:36:40.774Z,97799.06
2023-03-29T02:39:43.061Z,97800.06
2023-03-29T02:42:46.203Z,97808.03
2023-03-29T02:45:49.169Z,97812.69
2023-03-29T02:48:52.208Z,97816.00
2023-03-29T02:51:57.451Z,97820.16
2023-03-29T02:55:03.129Z,97821.81
2023-03-29T02:58:08.845Z,97831.09
2023-03-29T03:01:17.629Z,97835.91
2023-03-29T03:04:25.586Z,97841.03
2023-03-29T03:07:28.788Z,97824.63
2023-03-29T03:10:35.331Z,97835.06
2023-03-29T03:13:38.700Z,97846.13
2023-03-29T03:16:43.365Z,97853.25
2023-03-29T03:19:45.447Z,97861.38
2023-03-29T03:22:49.118Z,97853.91
2023-03-29T03:25:55.363Z,97860.84
2023-03-29T03:28:58.342Z,97863.97
2023-03-29T03:32:20.091Z,97865.81
2023-03-29T03:35:23.960Z,97862.34
2023-03-29T03:38:25.841Z,97862.03
2023-03-29T03:41:32.782Z,97862.16
2023-03-29T03:44:34.674Z,97871.59
2023-03-29T03:48:00.085Z,97866.75
2023-03-29T03:51:20.232Z,97864.94
2023-03-29T03:54:26.988Z,97857.59
2023-03-29T03:57:52.695Z,97868.38
2023-03-29T04:00:58.165Z,97869.50
2023-03-29T04:04:16.656Z,97886.06
2023-03-29T04:07:47.736Z,97888.69
2023-03-29T04:11:04.742Z,97896.63
2023-03-29T04:14:12.162Z,97894.03
2023-03-29T04:17:45.226Z,97906.44
2023-03-29T04:21:06.139Z,97900.66
2023-03-29T04:24:09.793Z,97903.25
2023-03-29T04:27:14.528Z,97899.13
2023-03-29T04:30:17.084Z,97904.59
2023-03-29T04:33:39.578Z,97899.19
2023-03-29T04:36:43.672Z,97894.00
2023-03-29T04:39:52.617Z,97910.81
2023-03-29T04:42:54.632Z,97902.72
2023-03-29T04:45:56.669Z,97907.00
2023-03-29T04:49:26.089Z,97906.63
2023-03-29T04:52:33.231Z,97905.63
2023-03-29T04:55:36.890Z,97909.78
2023-03-29T04:58:43.386Z,97921.00
2023-03-29T05:01:47.354Z,97929.13
2023-03-29T05:04:49.634Z,97935.75
2023-03-29T05:07:53.054Z,97943.53
2023-03-29T05:11:00.296Z,97948.00
2023-03-29T05:14:07.395Z,97945.78
2023-03-29T05:17:09.689Z,97943.81
2023-03-29T05:20:15.031Z,97948.44
2023-03-29T05:23:19.404Z,97952.22
2023-03-29T05:26:41.241Z,97948.63
2023-03-29T05:29:44.846Z,97950.16
2023-03-29T05:33:13.229Z,97959.13
2023-03-29T05:36:16.884Z,97959.13
2023-03-29T05:39:24.262Z,97970.09
2023-03-29T05:42:27.463Z,97975.69
2023-03-29T05:45:34.024Z,97973.97
2023-03-29T05:48:36.562Z,97969.50
2023-03-29T05:51:38.474Z,97967.31
2023-03-29T05:54:42.615Z,97985.00
2023-03-29T05:57:46.748Z,97995.78
2023-03-29T06:00:50.259Z,97997.31
2023-03-29T06:04:21.818Z,98002.03
2023-03-29T06:07:33.718Z,98007.66
2023-03-29T06:11:04.573Z,98009.03
2023-03-29T06:14:42.142Z,98021.81
2023-03-29T06:18:10.396Z,98029.97
2023-03-29T06:21:16.056Z,98028.16
2023-03-29T06:24:18.226Z,98031.84
2023-03-29T06:27:30.606Z,98052.75
2023-03-29T06:30:37.791Z,98043.13
2023-03-29T06:33:42.093Z,98045.72
2023-03-29T06:36:57.738Z,98043.38
2023-03-29T06:40:01.067Z,98050.78
2023-03-29T06:43:09.810Z,98048.53
2023-03-29T06:46:47.117Z,98061.53
2023-03-29T06:49:49.940Z,98060.31
2023-03-29T06:53:12.054Z,98073.88
2023-03-29T06:56:16.134Z,98073.47
2023-03-29T06:59:20.874Z,98084.97
2023-03-29T07:02:34.714Z,98096.03
2023-03-29T07:05:48.340Z,98095.47
2023-03-29T07:08:54.521Z,98100.25
2023-03-29T07:12:16.900Z,98102.06
2023-03-29T07:15:21.469Z,98101.72
2023-03-29T07:18:52.824Z,98109.19
2023-03-29T07:22:27.284Z,98123.50
2023-03-29T07:25:34.468Z,98135.25
2023-03-29T07:28:38.970Z,98136.25
2023-03-29T07:31:41.648Z,98140.94
2023-03-29T07:35:04.529Z,98149.72
2023-03-29T07:38:11.823Z,98165.16
2023-03-29T07:41:19.727Z,98172.44
2023-03-29T07:44:37.572Z,98162.81
2023-03-29T07:47:46.807Z,98141.06
2023-03-29T07:50:51.817Z,98136.22
2023-03-29T07:53:58.319Z,98150.38
2023-03-29T07:57:26.822Z,98142.88
2023-03-29T08:00:30.863Z,98142.16
2023-03-29T08:03:53.384Z,98147.47
2023-03-29T08:07:00.008Z,98152.16
2023-03-29T08:10:18.383Z,98137.06
2023-03-29T08:13:43.607Z,98158.53
2023-03-29T08:17:04.985Z,98158.66
2023-03-29T08:20:16.324Z,98165.16
2023-03-29T08:23:21.300Z,98188.31
2023-03-29T08:26:36.043Z,98183.44
2023-03-29T08:29:40.118Z,98182.94
2023-03-29T08:35:47.070Z,98195.34
2023-03-29T08:39:05.928Z,98207.38
2023-03-29T08:42:32.463Z,98208.13
2023-03-29T08:45:46.312Z,98212.75
2023-03-29T08:49:00.445Z,98213.88
2023-03-29T08:52:12.333Z,98211.28
2023-03-29T08:55:45.999Z,98219.50
2023-03-29T08:59:34.738Z,98226.38
2023-03-29T09:02:42.967Z,98226.84
2023-03-29T09:05:48.360Z,98233.78
2023-03-29T09:09:01.389Z,98232.41
2023-03-29T09:12:27.978Z,98233.63
2023-03-29T09:15:54.154Z,98247.66
2023-03-29T09:19:10.876Z,98257.25
2023-03-29T09:22:20.005Z,98256.81
2023-03-29T09:25:24.987Z,98251.19
2023-03-29T09:28:35.820Z,98254.69
2023-03-29T09:31:43.589Z,98260.50
2023-03-29T09:34:54.864Z,98262.72
2023-03-29T09:38:00.255Z,98271.66
2023-03-29T09:41:14.798Z,98273.47
2023-03-29T09:44:31.127Z,98279.75
2023-03-29T09:47:50.314Z,98281.13
2023-03-29T09:50:53.301Z,98283.16
2023-03-29T09:53:57.340Z,98288.94
2023-03-29T09:57:26.375Z,98285.66
2023-03-29T10:00:31.090Z,98276.19
2023-03-29T10:03:40.194Z,98281.81
2023-03-29T10:06:50.446Z,98297.47
2023-03-29T10:09:57.164Z,98290.75
2023-03-29T10:13:05.550Z,98306.56
2023-03-29T10:16:09.906Z,98318.09
2023-03-29T10:19:37.472Z,98311.81
2023-03-29T10:22:42.522Z,98323.91
2023-03-29T10:25:47.418Z,98327.41
2023-03-29T10:28:55.022Z,98336.56
2023-03-29T10:31:57.243Z,98344.22
2023-03-29T10:35:20.242Z,98357.84
2023-03-29T10:38:24.712Z,98367.00
2023-03-29T10:41:28.148Z,98374.94
2023-03-29T10:44:36.746Z,98380.19
2023-03-29T10:47:45.510Z,98389.84
2023-03-29T10:50:53.066Z,98391.63
2023-03-29T10:54:02.616Z,98389.22
2023-03-29T10:57:11.596Z,98400.84
2023-03-29T11:00:16.921Z,98398.44
2023-03-29T11:03:46.131Z,98391.34
2023-03-29T11:06:57.398Z,98390.50
2023-03-29T11:10:12.963Z,98391.91
2023-03-29T11:13:35.877Z,98408.53
2023-03-29T11:17:12.894Z,98410.03
2023-03-29T11:20:33.527Z,98412.31
2023-03-29T11:23:53.725Z,98403.88
2023-03-29T11:27:01.342Z,98409.91
2023-03-29T11:30:48.426Z,98424.06
2023-03-29T11:34:32.660Z,98425.16
2023-03-29T11:37:43.464Z,98432.50
2023-03-29T11:41:19.801Z,98430.97
2023-03-29T11:44:29.989Z,98445.16
2023-03-29T11:47:40.252Z,98446.84
2023-03-29T11:50:47.822Z,98455.41
2023-03-29T11:53:49.644Z,98446.47
2023-03-29T11:56:59.772Z,98441.72
2023-03-29T12:00:06.026Z,98442.22
2023-03-29T12:03:28.663Z,98450.09
2023-03-29T12:07:18.771Z,98448.56
2023-03-29T12:10:23.718Z,98452.44
2023-03-29T12:13:36.908Z,98446.03
2023-03-29T12:16:57.540Z,98463.00
2023-03-29T12:20:26.965Z,98458.25
2023-03-29T12:23:34.651Z,98455.16
2023-03-29T12:26:57.553Z,98464.63
2023-03-29T12:30:02.610Z,98476.22
2023-03-29T12:33:13.026Z,98478.28
2023-03-29T12:37:27.141Z,98472.09
2023-03-29T12:40:57.396Z,98478.09
2023-03-29T12:44:22.601Z,98494.69
2023-03-29T12:47:43.256Z,98494.53
2023-03-29T12:51:01.180Z,98495.50
2023-03-29T12:54:13.493Z,98503.06
2023-03-29T12:57:25.980Z,98498.38
2023-03-29T13:00:32.859Z,98508.28
2023-03-29T13:04:00.869Z,98520.72
2023-03-29T13:07:03.282Z,98521.13
2023-03-29T13:10:31.552Z,98533.41
2023-03-29T13:13:40.118Z,98536.88
2023-03-29T13:16:46.172Z,98540.22
2023-03-29T13:20:03.509Z,98543.63
2023-03-29T13:23:33.259Z,98548.66
2023-03-29T13:26:46.443Z,98547.94
2023-03-29T13:29:55.045Z,98551.88
2023-03-29T13:33:18.722Z,98550.47
2023-03-29T13:36:42.324Z,98553.28
2023-03-29T13:39:53.574Z,98561.38
2023-03-29T13:43:20.495Z,98553.28
2023-03-29T13:46:37.625Z,98555.06
2023-03-29T13:49:43.917Z,98560.09
2023-03-29T13:53:02.232Z,98562.47
2023-03-29T13:56:08.452Z,98564.97
2023-03-29T13:59:19.082Z,98563.72
2023-03-29T14:02:42.022Z,98561.91
2023-03-29T14:05:57.161Z,98563.31
2023-03-29T14:09:06.419Z,98569.44
2023-03-29T14:12:12.474Z,98567.50
2023-03-29T14:15:27.769Z,98565.28
2023-03-29T14:18:35.054Z,98569.19
2023-03-29T14:21:37.619Z,98568.47
2023-03-29T14:24:48.106Z,98574.63
2023-03-29T14:27:50.050Z,98572.53
2023-03-29T14:30:56.132Z,98581.03
2023-03-29T14:34:00.464Z,98576.72
2023-03-29T14:37:06.748Z,98577.25
2023-03-29T14:40:30.924Z,98576.28
2023-03-29T14:43:33.067Z,98579.63
2023-03-29T14:46:36.630Z,98581.03
2023-03-29T14:49:38.909Z,98570.03
2023-03-29T14:52:41.475Z,98577.25
2023-03-29T14:55:48.883Z,98580.19
2023-03-29T14:58:54.531Z,98588.38
2023-03-29T15:02:05.307Z,98597.47
2023-03-29T15:05:25.602Z,98601.75
2023-03-29T15:08:36.432Z,98605.28
2023-03-29T15:11:39.843Z,98613.34
2023-03-29T15:14:42.068Z,98611.66
2023-03-29T15:17:51.705Z,98622.41
2023-03-29T15:20:57.067Z,98623.50
2023-03-29T15:24:03.227Z,98634.63
2023-03-29T15:27:15.259Z,98627.25
2023-03-29T15:30:21.711Z,98635.63
2023-03-29T15:33:24.888Z,98638.28
2023-03-29T15:36:27.251Z,98647.47
2023-03-29T15:39:29.989Z,98650.53
2023-03-29T15:42:31.913Z,98659.88
2023-03-29T15:45:36.463Z,98662.50
2023-03-29T15:48:41.811Z,98661.94
2023-03-29T15:51:43.891Z,98661.91
2023-03-29T15:54:47.840Z,98664.66
2023-03-29T15:57:54.205Z,98669.56
2023-03-29T16:01:11.248Z,98674.28
2023-03-29T16:04:19.122Z,98678.91
2023-03-29T16:07:23.346Z,98675.56
2023-03-29T16:10:29.617Z,98689.19
2023-03-29T16:13:31.425Z,98683.09
2023-03-29T16:16:33.322Z,98690.88
2023-03-29T16:19:35.350Z,98699.28
2023-03-29T16:22:37.436Z,98701.34
2023-03-29T16:25:41.124Z,98708.31
2023-03-29T16:28:43.608Z,98713.47
2023-03-29T16:31:47.522Z,98716.97
2023-03-29T16:34:49.680Z,98711.94
2023-03-29T16:37:53.763Z,98718.03
2023-03-29T16:40:55.976Z,98716.88
2023-03-29T16:43:59.045Z,98724.69
2023-03-29T16:47:00.895Z,98740.69
2023-03-29T16:50:04.135Z,98742.25
2023-03-29T16:53:06.095Z,98747.22
2023-03-29T16:56:07.995Z,98756.84
2023-03-29T16:59:09.977Z,98753.66
2023-03-29T17:02:12.019Z,98756.97
2023-03-29T17:05:14.272Z,98760.44
2023-03-29T17:08:19.073Z,98758.25
2023-03-29T17:11:23.319Z,98759.91
2023-03-29T17:14:27.809Z,98765.47
2023-03-29T17:17:33.973Z,98768.00
2023-03-29T17:20:41.733Z,98766.78
2023-03-29T17:23:43.651Z,98765.41
2023-03-29T17:26:45.991Z,98755.69
2023-03-29T17:29:48.091Z,98763.78
2023-03-29T17:32:52.462Z,98772.31
2023-03-29T17:35:54.422Z,98772.44
2023-03-29T17:38:59.236Z,98773.81
2023-03-29T17:42:02.674Z,98780.50
2023-03-29T17:45:05.155Z,98783.41
2023-03-29T17:48:07.014Z,98793.56
2023-03-29T17:51:08.924Z,98786.31
2023-03-29T17:54:11.234Z,98796.38
2023-03-29T17:57:13.271Z,98795.28
2023-03-29T18:00:17.094Z,98790.13
2023-03-29T18:03:19.036Z,98785.81
2023-03-29T18:06:21.079Z,98797.16
2023-03-29T18:09:22.993Z,98790.78
2023-03-29T18:12:26.256Z,98794.91
2023-03-29T18:15:28.188Z,98792.72
2023-03-29T18:18:31.943Z,98802.34
2023-03-29T18:21:33.861Z,98789.88
2023-03-29T18:24:35.735Z,98795.22
2023-03-29T18:27:39.667Z,98787.81
2023-03-29T18:30:41.933Z,98790.78
2023-03-29T18:33:46.836Z,98798.53
2023-03-29T18:36:50.573Z,98800.41
2023-03-29T18:39:52.368Z,98810.34
2023-03-29T18:42:54.265Z,98806.19
2023-03-29T18:45:56.487Z,98817.44
2023-03-29T18:49:02.165Z,98813.22
2023-03-29T18:52:04.895Z,98810.84
2023-03-29T18:55:07.418Z,98818.28
2023-03-29T18:58:13.441Z,98818.66
2023-03-29T19:01:15.745Z,98813.53
2023-03-29T19:04:19.624Z,98816.19
2023-03-29T19:07:22.670Z,98818.25
2023-03-29T19:10:27.512Z,98817.88
2023-03-29T19:13:31.892Z,98823.41
2023-03-29T19:16:34.150Z,98823.53
2023-03-29T19:19:37.808Z,98828.25
2023-03-29T19:22:39.832Z,98823.91
2023-03-29T19:25:43.414Z,98832.69
2023-03-29T19:28:45.664Z,98840.38
2023-03-29T19:31:47.747Z,98836.63
2023-03-29T19:34:49.614Z,98840.97
2023-03-29T19:37:51.699Z,98835.28
2023-03-29T19:40:56.694Z,98837.69
2023-03-29T19:43:58.632Z,98841.34
2023-03-29T19:47:00.617Z,98833.03
2023-03-29T19:50:04.777Z,98833.53
2023-03-29T19:53:06.694Z,98840.88
2023-03-29T19:56:11.043Z,98833.25
2023-03-29T19:59:15.088Z,98829.97
2023-03-29T20:02:17.408Z,98836.56
2023-03-29T20:05:20.247Z,98826.94
2023-03-29T20:08:24.835Z,98826.09
2023-03-29T20:11:28.923Z,98832.81
2023-03-29T20:14:31.012Z,98823.09
2023-03-29T20:17:35.552Z,98834.50
2023-03-29T20:20:37.474Z,98831.72
2023-03-29T20:23:42.372Z,98837.84
2023-03-29T20:26:44.258Z,98837.66
2023-03-29T20:29:46.633Z,98835.72
2023-03-29T20:32:49.885Z,98835.00
2023-03-29T20:35:51.855Z,98833.78
2023-03-29T20:38:56.284Z,98846.34
2023-03-29T20:41:59.129Z,98839.63
2023-03-29T20:45:01.459Z,98843.22
2023-03-29T20:48:03.733Z,98834.59
2023-03-29T20:51:11.166Z,98838.66
2023-03-29T20:54:13.014Z,98845.28
2023-03-29T20:57:18.087Z,98836.84
2023-03-29T21:00:20.369Z,98839.50
2023-03-29T21:03:22.364Z,98826.41
2023-03-29T21:06:25.029Z,98832.78
2023-03-29T21:09:31.099Z,98832.78
2023-03-29T21:12:33.047Z,98818.84
2023-03-29T21:15:35.275Z,98823.75
2023-03-29T21:18:38.784Z,98834.25
2023-03-29T21:21:41.711Z,98834.34
2023-03-29T21:24:43.738Z,98836.75
2023-03-29T21:27:46.083Z,98851.03
2023-03-29T21:30:47.981Z,98842.88
2023-03-29T21:33:53.234Z,98852.72
2023-03-29T21:36:54.980Z,98856.00
2023-03-29T21:39:56.898Z,98847.34
2023-03-29T21:42:58.775Z,98851.03
2023-03-29T21:46:00.899Z,98851.44
2023-03-29T21:49:02.911Z,98849.97
2023-03-29T21:52:07.359Z,98853.81
2023-03-29T21:55:12.360Z,98852.63
2023-03-29T21:58:14.262Z,98845.88
2023-03-29T22:01:16.351Z,98845.66
2023-03-29T22:04:33.233Z,98851.75
2023-03-29T22:07:40.728Z,98861.84
2023-03-29T22:10:42.568Z,98868.44
2023-03-29T22:13:44.549Z,98864.84
2023-03-29T22:16:47.193Z,98871.81
2023-03-29T22:19:49.751Z,98867.72
2023-03-29T22:22:51.537Z,98869.09
2023-03-29T22:25:53.426Z,98863.91
2023-03-29T22:28:56.850Z,98864.63
2023-03-29T22:31:58.701Z,98862.47
2023-03-29T22:35:00.691Z,98854.06
2023-03-29T22:38:02.599Z,98857.06
2023-03-29T22:41:04.883Z,98862.84
2023-03-29T22:44:07.223Z,98862.84
2023-03-29T22:47:10.286Z,98863.81
2023-03-29T22:50:12.125Z,98862.25
2023-03-29T22:53:14.429Z,98857.06
2023-03-29T22:56:16.940Z,98854.19
2023-03-29T22:59:21.260Z,98854.06
2023-03-29T23:02:23.087Z,98856.38
2023-03-29T23:05:25.378Z,98855.25
2023-03-29T23:08:27.219Z,98850.69
2023-03-29T23:11:29.066Z,98860.09
2023-03-29T23:14:31.047Z,98862.72
2023-03-29T23:17:32.951Z,98864.03
2023-03-29T23:20:37.922Z,98863.81
2023-03-29T23:23:40.326Z,98867.03
2023-03-29T23:26:48.214Z,98860.44
2023-03-29T23:29:50.184Z,98851.91
2023-03-29T23:32:54.617Z,98860.53
2023-03-29T23:35:56.907Z,98866.09
2023-03-29T23:38:59.660Z,98867.88
2023-03-29T23:42:04.240Z,98867.28
2023-03-29T23:45:07.989Z,98870.28
2023-03-29T23:48:09.886Z,98873.16
2023-03-29T23:51:14.076Z,98869.22
2023-03-29T23:54:17.283Z,98876.66
2023-03-29T23:57:19.581Z,98874.34
